Terminal Aerodrome Forecast
Issued by NWS Portland, ME

Home | Current Version | Previous Version | Text Only | Print | Product List | Glossary On
Versions: 1 2 3 4 5 6 7 8 9 10 11 12 13 14 15 16 17 18 19
000
FTUS41 KGYX 281300 AAB
TAFCON
TAF AMD
KCON 281309Z 2813/2912 16005KT 3/4SM +TSRA BR BKN008 OVC040CB
     FM281330 16009KT 2SM SHRA BR OVC008
     FM282200 20007KT P6SM -SHRA BKN018 OVC030
     FM290400 20006KT P6SM BKN040=

USA.gov is the U.S. government's official web portal to all federal, state and local government web resources and services.